createdAt,value
2018-06-09T00:01:38.990Z,91.90
2018-06-09T00:03:43.255Z,92.20
2018-06-09T00:05:47.494Z,92.30
2018-06-09T00:07:51.758Z,92.70
2018-06-09T00:09:56.028Z,90.90
2018-06-09T00:12:00.253Z,91.10
2018-06-09T00:14:04.822Z,91.50
2018-06-09T00:16:09.106Z,92.50
2018-06-09T00:18:13.334Z,93.70
2018-06-09T00:20:17.295Z,93.90
2018-06-09T00:22:21.299Z,94.00
2018-06-09T00:24:25.549Z,93.80
2018-06-09T00:26:30.060Z,93.80
2018-06-09T00:28:34.327Z,94.80
2018-06-09T00:30:38.901Z,94.90
2018-06-09T00:32:43.469Z,94.60
2018-06-09T00:34:47.435Z,94.90
2018-06-09T00:36:51.694Z,95.10
2018-06-09T00:38:56.555Z,94.90
2018-06-09T00:41:00.809Z,94.90
2018-06-09T00:43:05.314Z,94.90
2018-06-09T00:45:09.851Z,94.80
2018-06-09T00:47:14.101Z,95.50
2018-06-09T00:49:18.329Z,96.00
2018-06-09T00:51:22.905Z,96.10
2018-06-09T00:53:27.162Z,96.20
2018-06-09T00:55:31.415Z,97.20
2018-06-09T00:57:35.883Z,97.30
2018-06-09T00:59:40.105Z,97.10
2018-06-09T01:01:44.353Z,97.00
2018-06-09T01:03:48.914Z,97.50
2018-06-09T01:05:52.873Z,97.90
2018-06-09T01:07:57.098Z,98.20
2018-06-09T01:10:01.475Z,98.30
2018-06-09T01:12:05.706Z,97.80
2018-06-09T01:16:13.887Z,97.60
2018-06-09T01:18:17.858Z,97.50
2018-06-09T01:20:22.765Z,97.10
2018-06-09T01:22:27.056Z,96.90
2018-06-09T01:24:31.859Z,96.60
2018-06-09T01:26:36.130Z,95.80
2018-06-09T01:30:44.644Z,95.40
2018-06-09T01:32:48.599Z,95.50
2018-06-09T01:34:53.227Z,95.50
2018-06-09T01:36:57.454Z,94.80
2018-06-09T01:39:01.726Z,94.80
2018-06-09T01:41:06.059Z,94.60
2018-06-09T01:43:10.387Z,94.60
2018-06-09T01:47:18.802Z,94.60
2018-06-09T01:49:23.049Z,94.70
2018-06-09T01:51:27.666Z,94.70
2018-06-09T01:53:32.030Z,94.00
2018-06-09T01:55:36.518Z,94.30
2018-06-09T01:57:40.786Z,93.90
2018-06-09T01:59:45.327Z,93.20
2018-06-09T02:01:49.574Z,92.30
2018-06-09T02:03:53.834Z,92.10
2018-06-09T02:05:58.716Z,92.20
2018-06-09T02:08:02.937Z,92.00
2018-06-09T02:10:07.563Z,92.20
2018-06-09T02:12:11.895Z,91.90
2018-06-09T02:14:16.110Z,92.20
2018-06-09T02:16:20.406Z,92.50
2018-06-09T02:18:24.659Z,93.00
2018-06-09T02:20:29.102Z,93.50
2018-06-09T02:22:33.882Z,93.10
2018-06-09T02:24:38.122Z,93.20
2018-06-09T02:26:42.406Z,93.00
2018-06-09T02:28:46.663Z,92.70
2018-06-09T02:30:50.962Z,92.50
2018-06-09T02:32:55.621Z,92.80
2018-06-09T02:34:59.873Z,92.40
2018-06-09T02:37:03.866Z,92.30
2018-06-09T02:39:08.221Z,92.40
2018-06-09T02:41:12.790Z,92.40
2018-06-09T02:43:17.067Z,92.30
2018-06-09T02:45:21.582Z,92.70
2018-06-09T02:47:26.142Z,93.10
2018-06-09T02:49:31.221Z,93.00
2018-06-09T02:51:35.477Z,93.40
2018-06-09T02:53:39.505Z,93.30
2018-06-09T02:55:43.731Z,93.00
2018-06-09T02:57:48.279Z,92.70
2018-06-09T02:59:52.655Z,92.90
2018-06-09T03:01:56.982Z,93.10
2018-06-09T03:04:01.582Z,92.50
2018-06-09T03:06:05.830Z,92.30
2018-06-09T03:08:10.292Z,92.70
2018-06-09T03:10:14.538Z,92.50
2018-06-09T03:12:18.538Z,92.80
2018-06-09T03:14:22.773Z,93.30
2018-06-09T03:16:27.036Z,93.00
2018-06-09T03:18:31.501Z,92.70
2018-06-09T03:20:35.730Z,92.10
2018-06-09T03:22:39.702Z,91.00
2018-06-09T03:24:45.007Z,90.50
2018-06-09T03:26:49.596Z,90.40
2018-06-09T03:28:54.018Z,90.50
2018-06-09T03:30:58.245Z,91.00
2018-06-09T03:33:02.834Z,90.70
2018-06-09T03:35:07.298Z,89.50
2018-06-09T03:37:11.790Z,89.00
2018-06-09T03:39:16.184Z,87.10
2018-06-09T03:41:20.416Z,87.40
2018-06-09T03:43:24.923Z,86.40
2018-06-09T03:45:29.397Z,84.40
2018-06-09T03:47:33.650Z,84.30
2018-06-09T03:49:37.885Z,84.50
2018-06-09T03:51:42.182Z,84.70
2018-06-09T03:53:46.422Z,84.40
2018-06-09T03:55:50.674Z,83.80
2018-06-09T03:57:54.978Z,83.50
2018-06-09T03:59:59.462Z,83.40
2018-06-09T04:02:04.017Z,84.10
2018-06-09T04:04:08.616Z,83.90
2018-06-09T04:06:12.933Z,83.60
2018-06-09T04:08:17.201Z,83.50
2018-06-09T04:10:21.446Z,83.30
2018-06-09T04:14:30.210Z,83.10
2018-06-09T04:16:35.124Z,82.90
2018-06-09T04:18:40.419Z,83.60
2018-06-09T04:22:48.687Z,82.30
2018-06-09T04:24:52.979Z,82.10
2018-06-09T04:26:57.221Z,82.30
2018-06-09T04:29:01.454Z,81.90
2018-06-09T04:31:05.810Z,81.70
2018-06-09T04:33:10.290Z,80.80
2018-06-09T04:35:14.517Z,80.40
2018-06-09T04:37:18.766Z,80.10
2018-06-09T04:39:23.544Z,79.20
2018-06-09T04:41:27.778Z,78.50
2018-06-09T04:43:32.074Z,77.70
2018-06-09T04:45:37.232Z,77.80
2018-06-09T04:47:41.670Z,78.20
2018-06-09T04:49:45.922Z,75.70
2018-06-09T04:51:50.440Z,75.90
2018-06-09T04:53:54.682Z,75.20
2018-06-09T04:55:58.976Z,74.70
2018-06-09T04:58:03.594Z,73.60
2018-06-09T05:00:08.233Z,73.80
2018-06-09T05:02:12.823Z,73.90
2018-06-09T05:04:17.096Z,75.60
2018-06-09T05:06:21.343Z,74.80
2018-06-09T05:08:25.797Z,74.80
2018-06-09T05:10:30.034Z,74.40
2018-06-09T05:12:33.994Z,73.20
2018-06-09T05:14:38.244Z,72.80
2018-06-09T05:16:42.521Z,72.20
2018-06-09T05:18:46.984Z,72.80
2018-06-09T05:20:51.412Z,73.30
2018-06-09T05:22:55.769Z,71.90
2018-06-09T05:24:59.997Z,69.90
2018-06-09T05:27:04.254Z,70.10
2018-06-09T05:29:08.534Z,68.80
2018-06-09T05:31:12.840Z,69.60
2018-06-09T05:33:17.253Z,69.80
2018-06-09T05:35:21.574Z,69.90
2018-06-09T05:37:25.813Z,70.20
2018-06-09T05:39:30.144Z,70.70
2018-06-09T05:41:34.489Z,69.60
2018-06-09T05:43:38.757Z,69.40
2018-06-09T05:45:43.030Z,69.20
2018-06-09T05:47:47.306Z,69.50
2018-06-09T05:49:51.748Z,69.00
2018-06-09T05:51:55.974Z,69.60
2018-06-09T05:54:00.213Z,69.90
2018-06-09T05:56:04.815Z,69.00
2018-06-09T05:58:09.081Z,69.20
2018-06-09T06:00:13.310Z,68.80
2018-06-09T06:02:17.710Z,69.30
2018-06-09T06:06:26.388Z,69.30
2018-06-09T06:10:35.958Z,70.40
2018-06-09T06:12:40.190Z,70.60
2018-06-09T06:14:45.366Z,71.00
2018-06-09T06:16:50.193Z,71.20
2018-06-09T06:18:54.418Z,69.20
2018-06-09T06:23:03.285Z,69.20
2018-06-09T06:25:07.864Z,70.10
2018-06-09T06:27:12.065Z,71.30
2018-06-09T06:29:16.309Z,71.80
2018-06-09T06:31:20.576Z,72.30
2018-06-09T06:33:24.876Z,72.60
2018-06-09T06:35:29.209Z,72.70
2018-06-09T06:37:33.795Z,73.10
2018-06-09T06:39:38.057Z,73.80
2018-06-09T06:41:42.335Z,75.50
2018-06-09T06:43:46.606Z,75.90
2018-06-09T06:45:51.094Z,76.00
2018-06-09T06:47:55.434Z,76.50
2018-06-09T06:50:00.206Z,77.60
2018-06-09T06:52:04.460Z,79.30
2018-06-09T06:54:08.920Z,79.40
2018-06-09T06:56:13.367Z,79.50
2018-06-09T06:58:17.625Z,79.70
2018-06-09T07:00:22.238Z,79.40
2018-06-09T07:02:26.691Z,78.90
2018-06-09T07:04:31.805Z,79.80
2018-06-09T07:06:36.159Z,79.30
2018-06-09T07:08:40.462Z,79.60
2018-06-09T07:10:44.921Z,80.30
2018-06-09T07:12:49.209Z,80.30
2018-06-09T07:14:53.458Z,80.70
2018-06-09T07:16:57.957Z,80.20
2018-06-09T07:19:02.229Z,80.20
2018-06-09T07:21:06.395Z,79.60
2018-06-09T07:23:10.638Z,79.10
2018-06-09T07:25:14.877Z,77.70
2018-06-09T07:27:19.325Z,77.10
2018-06-09T07:29:23.565Z,76.70
2018-06-09T07:31:27.819Z,76.20
2018-06-09T07:33:32.083Z,76.10
2018-06-09T07:35:36.335Z,75.70
2018-06-09T07:37:40.811Z,75.40
2018-06-09T07:39:45.050Z,75.70
2018-06-09T07:41:49.290Z,75.60
2018-06-09T07:43:53.538Z,75.20
2018-06-09T07:45:57.883Z,75.40
2018-06-09T07:48:02.138Z,76.40
2018-06-09T07:50:06.680Z,75.10
2018-06-09T07:52:11.319Z,74.40
2018-06-09T07:54:15.547Z,74.70
2018-06-09T07:56:19.789Z,75.40
2018-06-09T07:58:24.246Z,76.00
2018-06-09T08:00:28.763Z,76.40
2018-06-09T08:02:33.186Z,76.40
2018-06-09T08:04:37.458Z,75.80
2018-06-09T08:06:41.905Z,76.20
2018-06-09T08:08:46.169Z,75.80
2018-06-09T08:10:50.691Z,74.90
2018-06-09T08:12:55.108Z,74.90
2018-06-09T08:14:59.342Z,76.10
2018-06-09T08:17:03.325Z,74.20
2018-06-09T08:19:07.771Z,74.60
2018-06-09T08:21:12.049Z,73.70
2018-06-09T08:23:17.692Z,74.70
2018-06-09T08:25:21.953Z,75.10
2018-06-09T08:27:26.206Z,74.90
2018-06-09T08:29:30.545Z,75.80
2018-06-09T08:31:34.894Z,75.10
2018-06-09T08:33:41.133Z,75.40
2018-06-09T08:37:49.378Z,74.10
2018-06-09T08:39:53.626Z,74.60
2018-06-09T08:44:02.574Z,73.80
2018-06-09T08:46:06.805Z,72.80
2018-06-09T08:48:11.098Z,72.70
2018-06-09T08:50:15.374Z,73.30
2018-06-09T08:52:19.648Z,73.80
2018-06-09T08:54:23.866Z,74.50
2018-06-09T08:56:28.177Z,73.40
2018-06-09T08:58:32.165Z,73.50
2018-06-09T09:00:36.594Z,72.20
2018-06-09T09:02:40.860Z,73.30
2018-06-09T09:04:45.134Z,71.90
2018-06-09T09:06:49.405Z,71.60
2018-06-09T09:08:53.923Z,71.20
2018-06-09T09:10:58.202Z,71.30
2018-06-09T09:13:02.433Z,70.70
2018-06-09T09:17:11.203Z,70.30
2018-06-09T09:19:15.452Z,71.10
2018-06-09T09:21:19.761Z,70.00
2018-06-09T09:23:24.049Z,69.90
2018-06-09T09:25:29.109Z,70.00
2018-06-09T09:27:33.710Z,70.30
2018-06-09T09:29:37.969Z,69.30
2018-06-09T09:33:46.561Z,70.50
2018-06-09T09:35:51.146Z,69.90
2018-06-09T09:37:55.614Z,69.70
2018-06-09T09:39:59.857Z,69.30
2018-06-09T09:42:04.421Z,70.00
2018-06-09T09:44:08.676Z,69.10
2018-06-09T09:46:12.970Z,69.50
2018-06-09T09:48:17.585Z,68.90
2018-06-09T09:50:21.891Z,69.20
2018-06-09T09:52:26.218Z,68.00
2018-06-09T09:54:30.237Z,69.40
2018-06-09T09:56:34.768Z,68.20
2018-06-09T09:58:38.736Z,66.70
2018-06-09T10:00:43.520Z,66.00
2018-06-09T10:02:47.781Z,65.50
2018-06-09T10:04:52.364Z,66.30
2018-06-09T10:06:56.518Z,65.60
2018-06-09T10:09:01.139Z,67.20
2018-06-09T10:11:05.213Z,66.90
2018-06-09T10:13:10.113Z,65.20
2018-06-09T10:15:14.390Z,66.20
2018-06-09T10:17:18.670Z,66.20
2018-06-09T10:19:22.922Z,64.50
2018-06-09T10:21:27.273Z,63.50
2018-06-09T10:23:31.741Z,63.10
2018-06-09T10:25:35.970Z,62.30
2018-06-09T10:27:39.930Z,62.40
2018-06-09T10:29:44.190Z,60.70
2018-06-09T10:31:48.414Z,60.80
2018-06-09T10:33:52.650Z,59.80
2018-06-09T10:35:57.258Z,58.90
2018-06-09T10:38:01.579Z,58.90
2018-06-09T10:40:05.806Z,57.00
2018-06-09T10:42:10.054Z,57.20
2018-06-09T10:44:14.285Z,56.90
2018-06-09T10:46:18.552Z,56.70
2018-06-09T10:48:22.822Z,56.50
2018-06-09T10:50:27.045Z,56.30
2018-06-09T10:52:31.277Z,56.30
2018-06-09T10:54:35.970Z,56.60
2018-06-09T10:58:44.456Z,56.80
2018-06-09T11:00:48.757Z,55.50
2018-06-09T11:02:52.997Z,54.90
2018-06-09T11:04:57.242Z,54.30
2018-06-09T11:07:01.584Z,53.70
2018-06-09T11:09:06.968Z,53.90
2018-06-09T11:11:11.242Z,54.30
2018-06-09T11:13:15.482Z,54.10
2018-06-09T11:15:19.709Z,53.70
2018-06-09T11:17:24.013Z,52.70
2018-06-09T11:19:28.293Z,53.10
2018-06-09T11:21:32.506Z,51.60
2018-06-09T11:23:37.570Z,51.10
2018-06-09T11:25:41.850Z,50.40
2018-06-09T11:27:46.131Z,51.50
2018-06-09T11:29:50.401Z,49.50
2018-06-09T11:31:54.639Z,49.70
2018-06-09T11:33:58.885Z,49.90
2018-06-09T11:36:03.470Z,48.20
2018-06-09T11:38:07.956Z,48.50
2018-06-09T11:40:12.250Z,47.80
2018-06-09T11:42:16.490Z,47.40
2018-06-09T11:44:20.746Z,46.20
2018-06-09T11:46:25.219Z,45.90
2018-06-09T11:48:30.122Z,45.00
2018-06-09T11:50:34.893Z,42.30
2018-06-09T11:52:39.930Z,41.70
2018-06-09T11:54:44.717Z,41.40
2018-06-09T11:56:49.534Z,40.10
2018-06-09T11:58:54.590Z,41.50
2018-06-09T12:00:59.380Z,41.30
2018-06-09T12:03:04.184Z,40.70
2018-06-09T12:05:08.982Z,41.50
2018-06-09T12:07:15.038Z,41.30
2018-06-09T12:09:19.866Z,42.00
2018-06-09T12:11:24.995Z,42.90
2018-06-09T12:13:30.661Z,42.30
2018-06-09T12:15:35.469Z,42.20
2018-06-09T12:17:40.042Z,41.00
2018-06-09T12:19:44.362Z,37.80
2018-06-09T12:21:49.196Z,37.90
2018-06-09T12:23:53.493Z,36.60
2018-06-09T12:25:57.744Z,37.00
2018-06-09T12:28:02.396Z,36.00
2018-06-09T12:30:06.873Z,36.00
2018-06-09T12:32:11.154Z,35.60
2018-06-09T12:34:15.372Z,36.40
2018-06-09T12:36:20.448Z,36.50
2018-06-09T12:38:25.277Z,35.40
2018-06-09T12:40:30.075Z,35.00
2018-06-09T12:42:34.965Z,34.40
2018-06-09T12:44:39.762Z,33.50
2018-06-09T12:46:44.017Z,34.00
2018-06-09T12:48:48.355Z,34.80
2018-06-09T12:50:52.841Z,33.70
2018-06-09T12:52:57.082Z,35.30
2018-06-09T12:55:01.458Z,34.80
2018-06-09T12:57:06.069Z,33.90
2018-06-09T12:59:10.402Z,33.70
2018-06-09T13:01:14.653Z,33.90
2018-06-09T13:03:19.178Z,32.30
2018-06-09T13:05:23.434Z,32.30
2018-06-09T13:07:27.729Z,33.30
2018-06-09T13:11:36.337Z,32.40
2018-06-09T13:13:40.333Z,32.30
2018-06-09T13:15:44.618Z,32.60
2018-06-09T13:17:48.830Z,33.10
2018-06-09T13:19:53.041Z,33.70
2018-06-09T13:21:57.000Z,33.30
2018-06-09T13:24:01.259Z,34.40
2018-06-09T13:26:06.537Z,34.60
2018-06-09T13:28:11.104Z,35.70
2018-06-09T13:30:15.459Z,35.70
2018-06-09T13:32:19.960Z,35.90
2018-06-09T13:34:24.530Z,34.80
2018-06-09T13:36:28.879Z,36.30
2018-06-09T13:38:33.674Z,37.70
2018-06-09T13:40:38.543Z,38.10
2018-06-09T13:42:43.334Z,37.70
2018-06-09T13:44:48.137Z,36.90
2018-06-09T13:46:52.963Z,36.90
2018-06-09T13:48:57.378Z,36.80
2018-06-09T13:51:02.938Z,36.30
2018-06-09T13:53:07.245Z,37.40
2018-06-09T13:55:11.480Z,36.60
2018-06-09T13:57:16.121Z,37.60
2018-06-09T13:59:20.366Z,37.40
2018-06-09T14:01:25.188Z,37.30
2018-06-09T14:03:30.149Z,36.90
2018-06-09T14:05:35.008Z,35.80
2018-06-09T14:07:39.806Z,35.20
2018-06-09T14:09:44.646Z,36.50
2018-06-09T14:11:49.494Z,37.50
2018-06-09T14:13:54.290Z,37.00
2018-06-09T14:15:59.073Z,36.60
2018-06-09T14:18:04.668Z,36.60
2018-06-09T14:20:09.473Z,36.10
2018-06-09T14:22:14.268Z,35.60
2018-06-09T14:24:19.117Z,35.90
2018-06-09T14:26:23.373Z,35.60
2018-06-09T14:28:28.161Z,33.70
2018-06-09T14:30:32.646Z,34.30
2018-06-09T14:32:36.926Z,33.60
2018-06-09T14:34:41.356Z,33.30
2018-06-09T14:36:45.982Z,33.70
2018-06-09T14:38:50.405Z,34.80
2018-06-09T14:40:54.838Z,34.80
2018-06-09T14:42:59.123Z,34.50
2018-06-09T14:45:03.370Z,33.30
2018-06-09T14:47:07.642Z,32.50
2018-06-09T14:49:12.293Z,33.50
2018-06-09T14:51:16.325Z,34.50
2018-06-09T14:53:20.590Z,33.80
2018-06-09T14:55:25.429Z,33.40
2018-06-09T14:57:29.774Z,33.60
2018-06-09T14:59:34.092Z,34.00
2018-06-09T15:03:42.036Z,36.40
2018-06-09T15:05:46.453Z,35.10
2018-06-09T15:07:51.317Z,35.30
2018-06-09T15:09:55.625Z,34.60
2018-06-09T15:11:59.967Z,33.10
2018-06-09T15:14:04.439Z,33.70
2018-06-09T15:16:08.723Z,34.30
2018-06-09T15:18:13.082Z,33.30
2018-06-09T15:20:17.553Z,33.30
2018-06-09T15:22:21.798Z,33.40
2018-06-09T15:24:26.069Z,32.80
2018-06-09T15:26:30.481Z,32.50
2018-06-09T15:28:34.746Z,30.90
2018-06-09T15:30:38.997Z,30.30
2018-06-09T15:32:43.229Z,29.70
2018-06-09T15:34:47.627Z,30.00
2018-06-09T15:36:51.974Z,30.00
2018-06-09T15:38:56.347Z,29.90
2018-06-09T15:41:00.633Z,30.50
2018-06-09T15:43:05.270Z,30.50
2018-06-09T15:45:09.523Z,32.20
2018-06-09T15:47:13.767Z,31.80
2018-06-09T15:49:18.081Z,31.70
2018-06-09T15:51:22.453Z,30.60
2018-06-09T15:53:26.710Z,30.00
2018-06-09T15:55:30.966Z,29.80
2018-06-09T15:57:35.397Z,28.70
2018-06-09T15:59:39.481Z,29.20
2018-06-09T16:01:43.711Z,28.90
2018-06-09T16:03:48.075Z,29.70
2018-06-09T16:05:52.409Z,29.10
2018-06-09T16:07:56.829Z,29.30
2018-06-09T16:10:01.082Z,29.80
2018-06-09T16:14:09.362Z,29.40
2018-06-09T16:16:13.606Z,29.50
2018-06-09T16:18:18.476Z,30.00
2018-06-09T16:20:23.310Z,30.30
2018-06-09T16:22:28.132Z,30.00
2018-06-09T16:24:32.918Z,29.40
2018-06-09T16:26:38.073Z,30.10
2018-06-09T16:28:43.120Z,30.60
2018-06-09T16:30:47.976Z,30.00
2018-06-09T16:32:52.886Z,30.40
2018-06-09T16:37:02.510Z,29.40
2018-06-09T16:39:08.012Z,30.50
2018-06-09T16:41:12.815Z,30.70
2018-06-09T16:47:26.574Z,31.70
2018-06-09T16:51:36.042Z,30.70
2018-06-09T16:53:41.032Z,30.40
2018-06-09T16:57:49.743Z,30.00
2018-06-09T16:59:54.071Z,30.10
2018-06-09T17:01:58.438Z,30.60
2018-06-09T17:04:03.277Z,31.60
2018-06-09T17:06:08.344Z,31.50
2018-06-09T17:08:13.208Z,31.50
2018-06-09T17:10:17.533Z,32.00
2018-06-09T17:12:21.874Z,31.00
2018-06-09T17:14:26.828Z,31.50
2018-06-09T17:16:31.118Z,30.80
2018-06-09T17:18:35.495Z,30.90
2018-06-09T17:20:39.746Z,31.60
2018-06-09T17:22:44.061Z,32.10
2018-06-09T17:24:48.487Z,32.00
2018-06-09T17:26:52.997Z,31.90
2018-06-09T17:28:57.334Z,31.50
2018-06-09T17:31:01.578Z,31.00
2018-06-09T17:33:05.881Z,31.50
2018-06-09T17:35:10.163Z,31.40
2018-06-09T17:37:14.580Z,32.00
2018-06-09T17:39:19.337Z,33.00
2018-06-09T17:41:23.599Z,33.70
2018-06-09T17:43:29.442Z,34.00
2018-06-09T17:47:37.794Z,34.30
2018-06-09T17:49:42.026Z,33.70
2018-06-09T17:51:46.282Z,33.70
2018-06-09T17:53:50.606Z,33.50
2018-06-09T17:55:54.868Z,33.30
2018-06-09T17:57:59.777Z,33.40
2018-06-09T18:00:04.326Z,32.50
2018-06-09T18:02:08.908Z,32.50
2018-06-09T18:04:14.078Z,32.30
2018-06-09T18:06:18.370Z,32.80
2018-06-09T18:08:22.661Z,33.10
2018-06-09T18:10:26.949Z,33.50
2018-06-09T18:12:31.235Z,33.20
2018-06-09T18:14:35.197Z,35.10
2018-06-09T18:16:39.501Z,33.60
2018-06-09T18:18:43.800Z,34.50
2018-06-09T18:20:48.092Z,35.20
2018-06-09T18:22:52.444Z,34.80
2018-06-09T18:39:47.913Z,38.30
2018-06-09T18:41:52.083Z,38.30
2018-06-09T18:43:56.368Z,38.80
2018-06-09T18:46:00.614Z,39.20
2018-06-09T18:48:05.222Z,39.50
2018-06-09T18:50:09.842Z,39.80
2018-06-09T18:52:14.066Z,40.60
2018-06-09T18:54:18.329Z,40.50
2018-06-09T18:56:22.636Z,41.20
2018-06-09T18:58:26.887Z,41.60
2018-06-09T19:00:31.655Z,42.00
2018-06-09T19:02:35.831Z,42.10
2018-06-09T19:04:40.076Z,43.00
2018-06-09T19:06:44.318Z,43.00
2018-06-09T19:08:48.594Z,43.10
2018-06-09T19:10:52.989Z,43.40
2018-06-09T19:12:57.261Z,43.40
2018-06-09T19:15:01.650Z,43.60
2018-06-09T19:17:05.941Z,44.00
2018-06-09T19:19:10.194Z,44.60
2018-06-09T19:21:14.430Z,44.50
2018-06-09T19:23:18.694Z,45.10
2018-06-09T19:25:23.217Z,45.40
2018-06-09T19:27:27.484Z,45.40
2018-06-09T19:29:32.018Z,45.80
2018-06-09T19:31:36.277Z,45.70
2018-06-09T19:33:40.736Z,46.20
2018-06-09T19:35:45.016Z,46.00
2018-06-09T19:37:49.452Z,46.50
2018-06-09T19:39:54.044Z,47.20
2018-06-09T19:44:02.162Z,48.10
2018-06-09T19:46:06.525Z,48.40
2018-06-09T19:48:10.733Z,48.70
2018-06-09T19:50:14.988Z,49.00
2018-06-09T19:52:19.593Z,49.50
2018-06-09T19:54:23.987Z,50.60
2018-06-09T19:58:32.182Z,50.70
2018-06-09T20:00:36.725Z,49.90
2018-06-09T20:02:40.945Z,50.10
2018-06-09T20:04:45.223Z,50.10
2018-06-09T20:08:53.356Z,50.20
2018-06-09T20:10:58.122Z,49.90
2018-06-09T20:13:02.390Z,49.70
2018-06-09T20:15:06.721Z,49.30
2018-06-09T20:17:11.178Z,49.60
2018-06-09T20:19:15.410Z,49.50
2018-06-09T20:23:23.738Z,48.80
2018-06-09T20:25:28.082Z,48.60
2018-06-09T20:27:32.368Z,48.00
2018-06-09T20:29:36.621Z,47.70
2018-06-09T20:31:40.904Z,47.50
2018-06-09T20:33:44.941Z,47.30
2018-06-09T20:35:49.194Z,47.60
2018-06-09T20:37:53.450Z,48.10
2018-06-09T20:39:57.697Z,47.70
2018-06-09T20:46:09.373Z,46.90
2018-06-09T20:48:13.557Z,45.80
2018-06-09T20:50:17.815Z,45.90
2018-06-09T20:52:22.449Z,45.70
2018-06-09T20:54:26.722Z,45.70
2018-06-09T20:56:30.994Z,45.30
2018-06-09T20:58:39.954Z,44.70
2018-06-09T21:00:44.213Z,44.70
2018-06-09T21:02:48.517Z,45.20
2018-06-09T21:04:52.758Z,45.10
2018-06-09T21:06:57.019Z,44.80
2018-06-09T21:09:01.271Z,44.00
2018-06-09T21:11:05.818Z,44.30
2018-06-09T21:13:10.355Z,44.30
2018-06-09T21:15:14.802Z,43.80
2018-06-09T21:17:19.066Z,43.00
2018-06-09T21:19:23.401Z,44.60
2018-06-09T21:21:27.767Z,43.80
2018-06-09T21:23:32.015Z,43.60
2018-06-09T21:25:36.318Z,43.30
2018-06-09T21:29:55.577Z,43.30
2018-06-09T21:32:04.042Z,42.50
2018-06-09T21:34:25.460Z,43.00
2018-06-09T21:36:34.893Z,43.20
2018-06-09T21:38:43.610Z,43.90
2018-06-09T21:42:57.970Z,44.50
2018-06-09T21:45:09.250Z,44.00
2018-06-09T21:47:13.510Z,46.30
2018-06-09T21:49:18.057Z,44.90
2018-06-09T21:51:22.397Z,45.00
2018-06-09T21:53:26.593Z,44.70
2018-06-09T21:55:30.903Z,45.40
2018-06-09T21:57:35.142Z,45.00
2018-06-09T21:59:39.381Z,44.30
2018-06-09T22:01:43.663Z,44.20
2018-06-09T22:03:47.652Z,44.50
2018-06-09T22:05:51.679Z,45.40
2018-06-09T22:07:55.958Z,44.90
2018-06-09T22:10:00.330Z,44.90
2018-06-09T22:12:04.638Z,45.20
2018-06-09T22:14:08.898Z,45.00
2018-06-09T22:16:13.225Z,44.90
2018-06-09T22:18:17.453Z,45.00
2018-06-09T22:20:21.703Z,45.60
2018-06-09T22:22:26.354Z,45.20
2018-06-09T22:24:30.927Z,44.70
2018-06-09T22:26:34.919Z,45.00
2018-06-09T22:28:39.538Z,45.50
2018-06-09T22:30:43.851Z,44.80
2018-06-09T22:32:48.163Z,44.70
2018-06-09T22:34:52.477Z,45.20
2018-06-09T22:36:56.417Z,45.50
2018-06-09T22:39:00.694Z,45.30
2018-06-09T22:41:04.666Z,46.20
2018-06-09T22:43:08.881Z,45.30
2018-06-09T22:45:12.877Z,45.60
2018-06-09T22:47:17.121Z,46.20
2018-06-09T22:49:21.301Z,46.10
2018-06-09T22:51:25.889Z,46.80
2018-06-09T22:53:30.149Z,46.50
2018-06-09T22:55:34.398Z,47.50
2018-06-09T22:57:38.645Z,47.40
2018-06-09T22:59:42.884Z,47.80
2018-06-09T23:01:47.126Z,47.90
2018-06-09T23:03:51.642Z,48.00
2018-06-09T23:05:55.853Z,48.10
2018-06-09T23:08:00.115Z,47.80
2018-06-09T23:10:04.837Z,48.40
2018-06-09T23:12:09.078Z,48.90
2018-06-09T23:14:13.394Z,48.70
2018-06-09T23:16:17.658Z,49.20
2018-06-09T23:18:21.893Z,49.00
2018-06-09T23:20:25.849Z,49.30
2018-06-09T23:22:30.110Z,49.60
2018-06-09T23:24:34.250Z,49.90
2018-06-09T23:26:38.580Z,49.90
2018-06-09T23:28:43.104Z,50.00
2018-06-09T23:30:47.386Z,50.40
2018-06-09T23:32:51.526Z,50.60
2018-06-09T23:34:55.749Z,51.10
2018-06-09T23:37:00.330Z,51.30
2018-06-09T23:39:06.657Z,51.50
2018-06-09T23:41:10.936Z,51.50
2018-06-09T23:43:15.244Z,51.70
2018-06-09T23:45:19.477Z,51.30
2018-06-09T23:47:23.730Z,51.50
2018-06-09T23:49:27.998Z,51.40
2018-06-09T23:51:32.267Z,51.50
2018-06-09T23:53:36.713Z,52.10
2018-06-09T23:55:40.998Z,51.70
2018-06-09T23:57:45.230Z,52.10
2018-06-09T23:59:49.485Z,52.10
